M I D A S
Marine Information and Data Acquisition System
Tripno 1574 of the Zeeleeuw from 2008-09-25 04:02:56 to 2008-09-25 14:31:22
Back to CruiseResearch ActivitiesStationsMapUnderway DataData graphs

EquipmentUnitsComments
TimeDGPSUTC
LatitudeDGPSDM.mWGS84
LongitudeDGPSDM.mWGS84
SpeedMeteo Stationm/sRelative wind speed
DirectionMeteo StationdegRelative wind direction
TemperatureMeteo Stationdeg CelciusAir temperature
PressureMeteo StationPaAtmospheric pressure
HumidityMeteo Station%Relative humidity
Missing or incorrect values are displayed as -999
Metereological data collected by the RV Zeeleeuw from 2008-09-25 04:02:56 to 2008-09-25 14:31:22
Time Latitude Longitude Speed Direction Temperature Pressure Humidity
2008-09-25 04:31 51°14.802 2°53.824 -999 -999 -999 -999 -999
2008-09-25 04:33 51°14.821 2°53.194 -999 -999 -999 -999 -999
2008-09-25 04:35 51°14.834 2°52.562 -999 -999 -999 -999 -999
2008-09-25 04:37 51°14.856 2°51.93 -999 -999 -999 -999 -999
2008-09-25 04:39 51°14.875 2°51.288 -999 -999 -999 -999 -999
2008-09-25 04:41 51°14.908 2°50.648 -999 -999 -999 -999 -999
2008-09-25 04:43 51°14.954 2°50.005 -999 -999 -999 -999 -999
2008-09-25 04:45 51°15.089 2°49.409 -999 -999 -999 -999 -999
2008-09-25 04:47 51°15.23 2°48.823 -999 -999 -999 -999 -999
2008-09-25 04:49 51°15.372 2°48.253 -999 -999 -999 -999 -999
2008-09-25 04:51 51°15.525 2°47.688 -999 -999 -999 -999 -999
2008-09-25 04:53 51°15.7 2°47.132 -999 -999 -999 -999 -999
2008-09-25 04:55 51°15.874 2°46.581 -999 -999 -999 -999 -999
2008-09-25 04:57 51°16.05 2°46.032 -999 -999 -999 -999 -999
2008-09-25 04:59 51°16.233 2°45.517 -999 -999 -999 -999 -999
2008-09-25 05:01 51°16.413 2°44.997 -999 -999 -999 -999 -999
2008-09-25 05:03 51°16.589 2°44.467 -999 -999 -999 -999 -999
2008-09-25 05:05 51°16.765 2°43.94 -999 -999 -999 -999 -999
2008-09-25 05:07 51°16.957 2°43.407 -999 -999 -999 -999 -999
2008-09-25 05:09 51°17.153 2°42.894 -999 -999 -999 -999 -999
2008-09-25 05:11 51°17.363 2°42.382 -999 -999 -999 -999 -999
2008-09-25 05:13 51°17.563 2°41.857 -999 -999 -999 -999 -999
2008-09-25 05:15 51°17.777 2°41.345 -999 -999 -999 -999 -999
2008-09-25 05:17 51°18.019 2°40.871 -999 -999 -999 -999 -999
2008-09-25 05:19 51°18.274 2°40.428 -999 -999 -999 -999 -999
2008-09-25 05:21 51°18.526 2°39.982 -999 -999 -999 -999 -999
2008-09-25 05:23 51°18.774 2°39.525 -999 -999 -999 -999 -999
2008-09-25 05:25 51°19.022 2°39.067 -999 -999 -999 -999 -999
2008-09-25 05:27 51°19.271 2°38.601 -999 -999 -999 -999 -999
2008-09-25 05:29 51°19.518 2°38.13 -999 -999 -999 -999 -999
2008-09-25 05:31 51°19.767 2°37.657 -999 -999 -999 -999 -999
2008-09-25 05:33 51°20.001 2°37.214 -999 -999 -999 -999 -999
2008-09-25 05:35 51°20.062 2°37.046 -999 -999 -999 -999 -999
2008-09-25 05:37 51°20.083 2°36.945 -999 -999 -999 -999 -999
2008-09-25 05:39 51°20.089 2°36.862 -999 -999 -999 -999 -999
2008-09-25 05:41 51°20.083 2°36.782 -999 -999 -999 -999 -999
2008-09-25 05:43 51°20.101 2°36.817 -999 -999 -999 -999 -999
2008-09-25 05:45 51°20.116 2°36.937 -999 -999 -999 -999 -999
2008-09-25 05:47 51°20.08 2°36.906 -999 -999 -999 -999 -999
2008-09-25 05:49 51°20.064 2°36.836 -999 -999 -999 -999 -999
2008-09-25 05:51 51°20.034 2°36.761 -999 -999 -999 -999 -999
2008-09-25 05:53 51°19.973 2°36.737 -999 -999 -999 -999 -999
2008-09-25 05:55 51°19.994 2°36.861 -999 -999 -999 -999 -999
2008-09-25 05:57 51°20.045 2°37.037 -999 -999 -999 -999 -999
2008-09-25 05:59 51°20.09 2°37.089 -999 -999 -999 -999 -999
2008-09-25 06:01 51°20.098 2°37.032 -999 -999 -999 -999 -999
2008-09-25 06:03 51°20.092 2°36.963 -999 -999 -999 -999 -999
2008-09-25 06:05 51°20.09 2°36.895 -999 -999 -999 -999 -999
2008-09-25 06:07 51°20.078 2°36.827 -999 -999 -999 -999 -999
2008-09-25 06:09 51°20.133 2°36.857 -999 -999 -999 -999 -999
2008-09-25 06:11 51°20.136 2°36.958 -999 -999 -999 -999 -999
2008-09-25 06:13 51°20.103 2°36.915 -999 -999 -999 -999 -999
2008-09-25 06:15 51°20.067 2°36.862 -999 -999 -999 -999 -999
2008-09-25 06:17 51°20.03 2°36.819 -999 -999 -999 -999 -999
2008-09-25 06:19 51°19.995 2°36.778 -999 -999 -999 -999 -999
2008-09-25 06:21 51°19.963 2°36.736 -999 -999 -999 -999 -999
2008-09-25 06:23 51°19.932 2°36.695 -999 -999 -999 -999 -999
2008-09-25 06:25 51°19.901 2°36.655 -999 -999 -999 -999 -999
2008-09-25 06:27 51°19.868 2°36.617 -999 -999 -999 -999 -999
2008-09-25 06:29 51°19.836 2°36.581 -999 -999 -999 -999 -999
2008-09-25 06:31 51°19.804 2°36.546 -999 -999 -999 -999 -999
2008-09-25 06:33 51°19.773 2°36.512 -999 -999 -999 -999 -999
2008-09-25 06:35 51°19.742 2°36.48 -999 -999 -999 -999 -999
2008-09-25 06:37 51°19.713 2°36.45 -999 -999 -999 -999 -999
2008-09-25 06:39 51°19.686 2°36.419 -999 -999 -999 -999 -999
2008-09-25 06:41 51°19.658 2°36.386 -999 -999 -999 -999 -999
2008-09-25 06:43 51°19.631 2°36.354 -999 -999 -999 -999 -999
2008-09-25 06:45 51°19.603 2°36.323 -999 -999 -999 -999 -999
2008-09-25 06:47 51°19.575 2°36.297 -999 -999 -999 -999 -999
2008-09-25 06:49 51°19.547 2°36.288 -999 -999 -999 -999 -999
2008-09-25 06:51 51°19.6 2°36.378 -999 -999 -999 -999 -999
2008-09-25 06:53 51°19.694 2°36.491 -999 -999 -999 -999 -999
2008-09-25 06:55 51°19.789 2°36.597 -999 -999 -999 -999 -999
2008-09-25 06:57 51°19.882 2°36.691 -999 -999 -999 -999 -999
2008-09-25 06:59 51°19.921 2°36.743 -999 -999 -999 -999 -999
2008-09-25 07:01 51°19.902 2°36.806 -999 -999 -999 -999 -999
2008-09-25 07:03 51°19.864 2°36.917 -999 -999 -999 -999 -999
2008-09-25 07:05 51°19.839 2°36.977 -999 -999 -999 -999 -999
2008-09-25 07:07 51°19.818 2°36.994 -999 -999 -999 -999 -999
2008-09-25 07:09 51°19.799 2°36.995 -999 -999 -999 -999 -999
2008-09-25 07:11 51°19.81 2°37.085 -999 -999 -999 -999 -999
2008-09-25 07:13 51°20.088 2°37.211 -999 -999 -999 -999 -999
2008-09-25 07:15 51°20.41 2°37.464 -999 -999 -999 -999 -999
2008-09-25 07:17 51°20.717 2°37.775 -999 -999 -999 -999 -999
2008-09-25 07:19 51°20.969 2°38.055 -999 -999 -999 -999 -999
2008-09-25 07:21 51°21.128 2°38.245 -999 -999 -999 -999 -999
2008-09-25 07:23 51°21.197 2°38.331 -999 -999 -999 -999 -999
2008-09-25 07:25 51°21.197 2°38.325 -999 -999 -999 -999 -999
2008-09-25 07:27 51°21.187 2°38.308 -999 -999 -999 -999 -999
2008-09-25 07:29 51°21.215 2°38.274 -999 -999 -999 -999 -999
2008-09-25 07:31 51°21.247 2°38.337 -999 -999 -999 -999 -999
2008-09-25 07:33 51°21.23 2°38.36 -999 -999 -999 -999 -999
2008-09-25 07:35 51°21.218 2°38.345 -999 -999 -999 -999 -999
2008-09-25 07:37 51°21.202 2°38.335 -999 -999 -999 -999 -999
2008-09-25 07:39 51°21.195 2°38.318 -999 -999 -999 -999 -999
2008-09-25 07:41 51°21.123 2°38.453 -999 -999 -999 -999 -999
2008-09-25 07:43 51°20.896 2°38.873 -999 -999 -999 -999 -999
2008-09-25 07:45 51°20.648 2°39.328 -999 -999 -999 -999 -999
2008-09-25 07:47 51°20.411 2°39.779 -999 -999 -999 -999 -999
2008-09-25 07:49 51°20.171 2°40.241 -999 -999 -999 -999 -999
2008-09-25 07:51 51°19.937 2°40.704 -999 -999 -999 -999 -999
2008-09-25 07:53 51°19.702 2°41.178 -999 -999 -999 -999 -999
2008-09-25 07:55 51°19.446 2°41.634 -999 -999 -999 -999 -999
2008-09-25 07:57 51°19.183 2°42.091 -999 -999 -999 -999 -999
2008-09-25 07:59 51°18.919 2°42.549 -999 -999 -999 -999 -999
2008-09-25 08:01 51°18.662 2°43.008 -999 -999 -999 -999 -999
2008-09-25 08:03 51°18.411 2°43.457 -999 -999 -999 -999 -999
2008-09-25 08:05 51°18.108 2°43.835 -999 -999 -999 -999 -999
2008-09-25 08:07 51°17.801 2°44.206 -999 -999 -999 -999 -999
2008-09-25 08:09 51°17.493 2°44.573 -999 -999 -999 -999 -999
2008-09-25 08:11 51°17.184 2°44.936 -999 -999 -999 -999 -999
2008-09-25 08:13 51°16.875 2°45.3 -999 -999 -999 -999 -999
2008-09-25 08:15 51°16.569 2°45.666 -999 -999 -999 -999 -999
2008-09-25 08:17 51°16.266 2°46.039 -999 -999 -999 -999 -999
2008-09-25 08:19 51°16.075 2°46.575 -999 -999 -999 -999 -999
2008-09-25 08:21 51°15.926 2°47.16 -999 -999 -999 -999 -999
2008-09-25 08:23 51°15.774 2°47.751 -999 -999 -999 -999 -999
2008-09-25 08:25 51°15.626 2°48.316 -999 -999 -999 -999 -999
2008-09-25 08:27 51°15.59 2°48.578 -999 -999 -999 -999 -999
2008-09-25 08:29 51°15.56 2°48.82 -999 -999 -999 -999 -999
2008-09-25 08:31 51°15.468 2°49.394 -999 -999 -999 -999 -999
2008-09-25 08:33 51°15.388 2°50.013 -999 -999 -999 -999 -999
2008-09-25 08:35 51°15.353 2°50.642 -999 -999 -999 -999 -999
2008-09-25 08:37 51°15.319 2°51.274 -999 -999 -999 -999 -999
2008-09-25 08:39 51°15.227 2°51.878 -999 -999 -999 -999 -999
2008-09-25 08:41 51°15.103 2°52.262 -999 -999 -999 -999 -999
2008-09-25 08:43 51°15.014 2°52.569 -999 -999 -999 -999 -999
2008-09-25 08:45 51°14.992 2°52.716 -999 -999 -999 -999 -999
2008-09-25 08:47 51°14.987 2°52.799 -999 -999 -999 -999 -999
2008-09-25 08:49 51°14.985 2°52.854 -999 -999 -999 -999 -999
2008-09-25 08:51 51°14.983 2°52.892 -999 -999 -999 -999 -999
2008-09-25 08:53 51°14.981 2°52.923 -999 -999 -999 -999 -999
2008-09-25 08:55 51°14.98 2°52.953 -999 -999 -999 -999 -999
2008-09-25 08:57 51°14.979 2°52.983 -999 -999 -999 -999 -999
2008-09-25 08:59 51°14.973 2°53.068 -999 -999 -999 -999 -999
2008-09-25 09:01 51°15.095 2°52.974 -999 -999 -999 -999 -999
2008-09-25 09:03 51°15.19 2°52.439 -999 -999 -999 -999 -999
2008-09-25 09:05 51°15.255 2°51.866 -999 -999 -999 -999 -999
2008-09-25 09:07 51°15.336 2°51.31 -999 -999 -999 -999 -999
2008-09-25 09:09 51°15.423 2°50.758 -999 -999 -999 -999 -999
2008-09-25 09:11 51°15.515 2°50.206 -999 -999 -999 -999 -999
2008-09-25 09:13 51°15.604 2°49.655 -999 -999 -999 -999 -999
2008-09-25 09:15 51°15.694 2°49.106 -999 -999 -999 -999 -999
2008-09-25 09:17 51°15.783 2°48.547 -999 -999 -999 -999 -999
2008-09-25 09:19 51°15.87 2°47.997 -999 -999 -999 -999 -999
2008-09-25 09:21 51°15.959 2°47.445 -999 -999 -999 -999 -999
2008-09-25 09:23 51°16.053 2°46.894 -999 -999 -999 -999 -999
2008-09-25 09:25 51°16.173 2°46.35 -999 -999 -999 -999 -999
2008-09-25 09:27 51°16.324 2°45.831 -999 -999 -999 -999 -999
2008-09-25 09:29 51°16.572 2°45.384 -999 -999 -999 -999 -999
2008-09-25 09:31 51°16.85 2°44.963 -999 -999 -999 -999 -999
2008-09-25 09:33 51°17.145 2°44.578 -999 -999 -999 -999 -999
2008-09-25 09:35 51°17.446 2°44.206 -999 -999 -999 -999 -999
2008-09-25 09:37 51°17.76 2°43.867 -999 -999 -999 -999 -999
2008-09-25 09:39 51°18.054 2°43.528 -999 -999 -999 -999 -999
2008-09-25 09:41 51°18.234 2°43.025 -999 -999 -999 -999 -999
2008-09-25 09:43 51°18.435 2°42.522 -999 -999 -999 -999 -999
2008-09-25 09:45 51°18.598 2°41.988 -999 -999 -999 -999 -999
2008-09-25 09:47 51°18.772 2°41.471 -999 -999 -999 -999 -999
2008-09-25 09:49 51°18.947 2°40.971 -999 -999 -999 -999 -999
2008-09-25 09:51 51°19.115 2°40.463 -999 -999 -999 -999 -999
2008-09-25 09:53 51°19.289 2°39.945 -999 -999 -999 -999 -999
2008-09-25 09:55 51°19.431 2°39.398 -999 -999 -999 -999 -999
2008-09-25 09:57 51°19.561 2°38.845 -999 -999 -999 -999 -999
2008-09-25 09:59 51°19.697 2°38.308 -999 -999 -999 -999 -999
2008-09-25 10:01 51°19.846 2°37.787 -999 -999 -999 -999 -999
2008-09-25 10:03 51°19.968 2°37.394 -999 -999 -999 -999 -999
2008-09-25 10:05 51°19.998 2°37.204 -999 -999 -999 -999 -999
2008-09-25 10:07 51°20.01 2°37.228 -999 -999 -999 -999 -999
2008-09-25 10:09 51°20.023 2°37.258 -999 -999 -999 -999 -999
2008-09-25 10:11 51°20.031 2°37.292 -999 -999 -999 -999 -999
2008-09-25 10:13 51°20.029 2°37.35 -999 -999 -999 -999 -999
2008-09-25 10:15 51°19.938 2°37.835 -999 -999 -999 -999 -999
2008-09-25 10:17 51°19.777 2°38.415 -999 -999 -999 -999 -999
2008-09-25 10:19 51°19.615 2°38.99 -999 -999 -999 -999 -999
2008-09-25 10:21 51°19.457 2°39.559 -999 -999 -999 -999 -999
2008-09-25 10:23 51°19.305 2°40.125 -999 -999 -999 -999 -999
2008-09-25 10:25 51°19.16 2°40.703 -999 -999 -999 -999 -999
2008-09-25 10:27 51°19.005 2°41.285 -999 -999 -999 -999 -999
2008-09-25 10:29 51°18.837 2°41.855 -999 -999 -999 -999 -999
2008-09-25 10:31 51°18.665 2°42.423 -999 -999 -999 -999 -999
2008-09-25 10:33 51°18.546 2°42.795 -999 -999 -999 -999 -999
2008-09-25 10:35 51°18.489 2°42.926 -999 -999 -999 -999 -999
2008-09-25 10:37 51°18.461 2°42.979 -999 -999 -999 -999 -999
2008-09-25 10:39 51°18.456 2°43.02 -999 -999 -999 -999 -999
2008-09-25 10:41 51°18.458 2°43.05 -999 -999 -999 -999 -999
2008-09-25 10:43 51°18.462 2°43.073 -999 -999 -999 -999 -999
2008-09-25 10:45 51°18.463 2°43.112 -999 -999 -999 -999 -999
2008-09-25 10:47 51°18.464 2°43.169 -999 -999 -999 -999 -999
2008-09-25 10:49 51°18.468 2°43.223 -999 -999 -999 -999 -999
2008-09-25 10:51 51°18.47 2°43.275 -999 -999 -999 -999 -999
2008-09-25 10:53 51°18.474 2°43.31 -999 -999 -999 -999 -999
2008-09-25 10:55 51°18.482 2°43.329 -999 -999 -999 -999 -999
2008-09-25 10:57 51°18.488 2°43.347 -999 -999 -999 -999 -999
2008-09-25 10:59 51°18.494 2°43.368 -999 -999 -999 -999 -999
2008-09-25 11:01 51°18.499 2°43.389 -999 -999 -999 -999 -999
2008-09-25 11:03 51°18.485 2°43.43 -999 -999 -999 -999 -999
2008-09-25 11:05 51°18.428 2°43.336 -999 -999 -999 -999 -999
2008-09-25 11:07 51°18.447 2°43.267 -999 -999 -999 -999 -999
2008-09-25 11:09 51°18.461 2°43.278 -999 -999 -999 -999 -999
2008-09-25 11:11 51°18.468 2°43.295 -999 -999 -999 -999 -999
2008-09-25 11:13 51°18.477 2°43.308 -999 -999 -999 -999 -999
2008-09-25 11:15 51°18.486 2°43.321 -999 -999 -999 -999 -999
2008-09-25 11:17 51°18.497 2°43.328 -999 -999 -999 -999 -999
2008-09-25 11:19 51°18.509 2°43.334 -999 -999 -999 -999 -999
2008-09-25 11:21 51°18.517 2°43.342 -999 -999 -999 -999 -999
2008-09-25 11:23 51°18.515 2°43.268 -999 -999 -999 -999 -999
2008-09-25 11:25 51°18.495 2°43.268 -999 -999 -999 -999 -999
2008-09-25 11:27 51°18.49 2°43.289 -999 -999 -999 -999 -999
2008-09-25 11:29 51°18.482 2°43.316 -999 -999 -999 -999 -999
2008-09-25 11:31 51°18.48 2°43.341 -999 -999 -999 -999 -999
2008-09-25 11:33 51°18.486 2°43.354 -999 -999 -999 -999 -999
2008-09-25 11:35 51°18.493 2°43.358 -999 -999 -999 -999 -999
2008-09-25 11:37 51°18.502 2°43.359 -999 -999 -999 -999 -999
2008-09-25 11:39 51°18.51 2°43.363 -999 -999 -999 -999 -999
2008-09-25 11:41 51°18.468 2°43.364 -999 -999 -999 -999 -999
2008-09-25 11:43 51°18.468 2°43.319 -999 -999 -999 -999 -999
2008-09-25 11:45 51°18.474 2°43.338 -999 -999 -999 -999 -999
2008-09-25 11:47 51°18.481 2°43.344 -999 -999 -999 -999 -999
2008-09-25 11:49 51°18.487 2°43.354 -999 -999 -999 -999 -999
2008-09-25 11:51 51°18.501 2°43.333 -999 -999 -999 -999 -999
2008-09-25 11:53 51°18.607 2°42.969 -999 -999 -999 -999 -999
2008-09-25 11:55 51°18.741 2°42.404 -999 -999 -999 -999 -999
2008-09-25 11:57 51°18.861 2°41.829 -999 -999 -999 -999 -999
2008-09-25 11:59 51°18.984 2°41.259 -999 -999 -999 -999 -999
2008-09-25 13:01 51°20.007 2°37.039 -999 -999 -999 -999 -999
2008-09-25 13:03 51°20.001 2°37.021 -999 -999 -999 -999 -999
2008-09-25 13:05 51°19.995 2°37.003 -999 -999 -999 -999 -999
2008-09-25 13:07 51°19.981 2°36.992 -999 -999 -999 -999 -999
2008-09-25 13:09 51°19.96 2°36.998 -999 -999 -999 -999 -999
2008-09-25 13:11 51°19.947 2°36.99 -999 -999 -999 -999 -999
2008-09-25 13:13 51°19.929 2°36.989 -999 -999 -999 -999 -999
2008-09-25 13:15 51°19.83 2°37.17 -999 -999 -999 -999 -999
2008-09-25 13:17 51°19.65 2°37.541 -999 -999 -999 -999 -999
2008-09-25 13:19 51°19.436 2°38.011 -999 -999 -999 -999 -999
2008-09-25 13:21 51°19.222 2°38.49 -999 -999 -999 -999 -999
2008-09-25 13:23 51°19.02 2°38.986 -999 -999 -999 -999 -999
2008-09-25 13:25 51°18.827 2°39.494 -999 -999 -999 -999 -999
2008-09-25 13:27 51°18.632 2°40.002 -999 -999 -999 -999 -999
2008-09-25 13:29 51°18.431 2°40.498 -999 -999 -999 -999 -999
2008-09-25 13:31 51°18.229 2°40.99 -999 -999 -999 -999 -999
2008-09-25 13:33 51°18.03 2°41.48 -999 -999 -999 -999 -999
2008-09-25 13:35 51°17.826 2°41.972 -999 -999 -999 -999 -999
2008-09-25 13:37 51°17.62 2°42.465 -999 -999 -999 -999 -999
2008-09-25 13:39 51°17.413 2°42.942 -999 -999 -999 -999 -999
2008-09-25 13:41 51°17.214 2°43.413 -999 -999 -999 -999 -999
2008-09-25 13:43 51°17.007 2°43.892 -999 -999 -999 -999 -999
2008-09-25 13:45 51°16.8 2°44.374 -999 -999 -999 -999 -999
2008-09-25 13:47 51°16.59 2°44.856 -999 -999 -999 -999 -999
2008-09-25 13:49 51°16.383 2°45.336 -999 -999 -999 -999 -999
2008-09-25 13:51 51°16.216 2°45.842 -999 -999 -999 -999 -999
2008-09-25 13:53 51°16.067 2°46.37 -999 -999 -999 -999 -999
2008-09-25 13:55 51°15.919 2°46.899 -999 -999 -999 -999 -999
2008-09-25 13:57 51°15.737 2°47.405 -999 -999 -999 -999 -999
2008-09-25 13:59 51°15.552 2°47.899 -999 -999 -999 -999 -999
2008-09-25 14:01 51°15.392 2°48.406 -999 -999 -999 -999 -999
2008-09-25 14:03 51°15.304 2°48.957 -999 -999 -999 -999 -999
2008-09-25 14:05 51°15.236 2°49.515 -999 -999 -999 -999 -999
2008-09-25 14:07 51°15.167 2°50.073 -999 -999 -999 -999 -999
2008-09-25 14:09 51°15.097 2°50.632 -999 -999 -999 -999 -999
2008-09-25 14:11 51°15.022 2°51.178 -999 -999 -999 -999 -999
2008-09-25 14:13 51°14.939 2°51.673 -999 -999 -999 -999 -999
2008-09-25 14:15 51°14.866 2°52.066 -999 -999 -999 -999 -999
2008-09-25 14:17 51°14.793 2°52.452 -999 -999 -999 -999 -999
2008-09-25 14:19 51°14.718 2°52.831 -999 -999 -999 -999 -999
2008-09-25 14:21 51°14.651 2°53.097 -999 -999 -999 -999 -999
2008-09-25 14:23 51°14.6 2°53.328 -999 -999 -999 -999 -999
2008-09-25 14:25 51°14.527 2°53.744 -999 -999 -999 -999 -999
2008-09-25 14:27 51°14.453 2°54.228 -999 -999 -999 -999 -999
2008-09-25 14:29 51°14.394 2°54.772 -999 -999 -999 -999 -999
2008-09-25 14:31 51°14.241 2°55.284 -999 -999 -999 -999 -999